createdAt,value
2023-01-17T00:01:34.251Z,15.00
2023-01-17T00:04:20.420Z,13.90
2023-01-17T00:07:05.675Z,15.20
2023-01-17T00:09:50.683Z,15.40
2023-01-17T00:12:17.969Z,14.60
2023-01-17T00:14:44.898Z,12.38
2023-01-17T00:17:11.524Z,12.98
2023-01-17T00:19:57.124Z,14.60
2023-01-17T00:22:48.170Z,13.82
2023-01-17T00:25:45.652Z,14.57
2023-01-17T00:28:12.706Z,12.60
2023-01-17T00:30:39.276Z,12.75
2023-01-17T00:33:06.103Z,13.02
2023-01-17T00:35:33.862Z,11.20
2023-01-17T00:38:05.085Z,13.35
2023-01-17T00:40:33.021Z,12.43
2023-01-17T00:43:18.328Z,11.77
2023-01-17T00:46:04.699Z,10.50
2023-01-17T00:48:50.509Z,8.70
2023-01-17T00:51:35.786Z,8.70
2023-01-17T00:54:21.403Z,9.15
2023-01-17T00:57:06.557Z,9.60
2023-01-17T00:59:51.859Z,8.32
2023-01-17T01:02:37.741Z,7.57
2023-01-17T01:05:23.674Z,8.52
2023-01-17T01:08:08.887Z,9.00
2023-01-17T01:10:54.321Z,7.03
2023-01-17T01:13:46.017Z,9.52
2023-01-17T01:16:32.617Z,10.32
2023-01-17T01:19:18.109Z,8.32
2023-01-17T01:22:03.618Z,10.20
2023-01-17T01:24:48.899Z,9.77
2023-01-17T01:27:34.585Z,8.57
2023-01-17T01:30:19.844Z,11.52
2023-01-17T01:33:05.134Z,9.63
2023-01-17T01:35:31.702Z,8.00
2023-01-17T01:37:58.325Z,7.65
2023-01-17T01:40:25.056Z,10.50
2023-01-17T01:42:53.092Z,8.40
2023-01-17T01:45:25.401Z,9.02
2023-01-17T01:48:05.601Z,7.63
2023-01-17T01:50:35.046Z,9.98
2023-01-17T01:53:04.613Z,7.80
2023-01-17T01:55:34.603Z,8.93
2023-01-17T01:58:22.148Z,7.43
2023-01-17T02:00:49.343Z,8.30
2023-01-17T02:03:29.402Z,7.05
2023-01-17T02:06:00.868Z,7.57
2023-01-17T02:08:28.019Z,8.00
2023-01-17T02:10:56.158Z,8.50
2023-01-17T02:13:22.791Z,8.18
2023-01-17T02:16:14.047Z,9.68
2023-01-17T02:19:26.312Z,6.53
2023-01-17T02:21:58.884Z,6.63
2023-01-17T02:24:45.001Z,5.05
2023-01-17T02:27:11.515Z,5.18
2023-01-17T02:29:56.726Z,3.97
2023-01-17T02:32:32.530Z,3.40
2023-01-17T02:35:20.347Z,3.58
2023-01-17T02:38:00.524Z,3.42
2023-01-17T02:40:33.006Z,3.20
2023-01-17T02:43:08.267Z,2.97
2023-01-17T02:45:34.978Z,2.80
2023-01-17T02:48:01.738Z,2.65
2023-01-17T02:50:39.517Z,3.33
2023-01-17T02:53:27.747Z,3.40
2023-01-17T02:56:14.588Z,2.42
2023-01-17T02:59:05.720Z,3.53
2023-01-17T03:02:00.553Z,2.92
2023-01-17T03:04:27.336Z,2.95
2023-01-17T03:06:58.769Z,2.78
2023-01-17T03:09:26.883Z,3.03
2023-01-17T03:11:53.756Z,4.32
2023-01-17T03:14:20.519Z,2.22
2023-01-17T03:16:47.532Z,2.45
2023-01-17T03:19:14.756Z,1.88
2023-01-17T03:21:41.362Z,1.45
2023-01-17T03:24:08.244Z,1.27
2023-01-17T03:26:34.875Z,1.33
2023-01-17T03:29:02.391Z,0.70
2023-01-17T03:31:29.008Z,1.17
2023-01-17T03:33:55.611Z,2.63
2023-01-17T03:36:22.243Z,0.60
2023-01-17T03:38:48.841Z,0.40
2023-01-17T03:41:15.388Z,1.38
2023-01-17T03:43:41.926Z,1.77
2023-01-17T03:46:21.901Z,1.08
2023-01-17T03:48:48.587Z,0.30
2023-01-17T03:51:16.143Z,2.58
2023-01-17T03:53:43.033Z,0.52
2023-01-17T03:56:09.623Z,1.38
2023-01-17T03:58:36.161Z,3.42
2023-01-17T04:01:02.829Z,1.17
2023-01-17T04:03:29.651Z,1.20
2023-01-17T04:05:56.431Z,0.60
2023-01-17T04:08:23.177Z,0.20
2023-01-17T04:10:49.787Z,2.25
2023-01-17T04:13:16.998Z,0.98
2023-01-17T04:15:48.370Z,0.20
2023-01-17T04:18:17.279Z,1.88
2023-01-17T04:20:44.324Z,0.13
2023-01-17T04:23:11.102Z,1.40
2023-01-17T04:25:37.718Z,1.15
2023-01-17T04:28:05.234Z,0.50
2023-01-17T04:30:33.031Z,1.38
2023-01-17T04:33:00.194Z,0.60
2023-01-17T04:35:28.931Z,0.50
2023-01-17T04:37:55.558Z,3.10
2023-01-17T04:40:22.319Z,0.28
2023-01-17T04:42:48.922Z,2.17
2023-01-17T04:45:16.454Z,1.27
2023-01-17T04:47:43.270Z,0.70
2023-01-17T04:50:13.134Z,1.55
2023-01-17T04:52:40.332Z,0.40
2023-01-17T04:55:07.620Z,0.22
2023-01-17T04:57:34.205Z,0.30
2023-01-17T05:00:00.901Z,0.47
2023-01-17T05:02:27.544Z,0.30
2023-01-17T05:04:54.196Z,1.77
2023-01-17T05:07:20.887Z,1.08
2023-01-17T05:09:47.692Z,1.30
2023-01-17T05:12:14.923Z,1.15
2023-01-17T05:14:41.450Z,1.65
2023-01-17T05:17:08.200Z,1.35
2023-01-17T05:19:34.827Z,1.73
2023-01-17T05:22:04.034Z,1.00
2023-01-17T05:24:32.248Z,0.60
2023-01-17T05:27:03.076Z,1.45
2023-01-17T05:29:30.661Z,4.38
2023-01-17T05:31:57.791Z,0.70
2023-01-17T05:34:24.955Z,0.70
2023-01-17T05:36:51.590Z,1.20
2023-01-17T05:39:18.299Z,0.80
2023-01-17T05:41:46.183Z,0.60
2023-01-17T05:44:13.159Z,0.82
2023-01-17T05:46:40.721Z,1.33
2023-01-17T05:49:07.518Z,1.20
2023-01-17T05:51:37.776Z,1.70
2023-01-17T05:54:05.091Z,0.80
2023-01-17T05:56:31.957Z,0.80
2023-01-17T05:58:58.574Z,2.60
2023-01-17T06:01:25.177Z,2.45
2023-01-17T06:03:51.939Z,1.48
2023-01-17T06:06:18.537Z,1.75
2023-01-17T06:08:45.048Z,3.15
2023-01-17T06:11:11.613Z,1.77
2023-01-17T06:13:38.305Z,2.55
2023-01-17T06:16:05.160Z,3.15
2023-01-17T06:18:32.155Z,5.30
2023-01-17T06:20:58.853Z,4.28
2023-01-17T06:23:26.066Z,5.43
2023-01-17T06:25:52.719Z,3.97
2023-01-17T06:28:21.868Z,5.88
2023-01-17T06:30:49.119Z,5.95
2023-01-17T06:33:16.081Z,9.02
2023-01-17T06:35:50.537Z,7.72
2023-01-17T06:38:17.394Z,9.13
2023-01-17T06:40:44.024Z,6.05
2023-01-17T06:43:10.681Z,6.22
2023-01-17T06:45:37.398Z,9.73
2023-01-17T06:48:05.356Z,11.07
2023-01-17T06:50:33.393Z,11.02
2023-01-17T06:53:04.997Z,7.93
2023-01-17T06:55:33.743Z,5.85
2023-01-17T06:58:02.511Z,10.77
2023-01-17T07:00:31.069Z,6.55
2023-01-17T07:02:57.896Z,10.70
2023-01-17T07:05:24.580Z,10.05
2023-01-17T07:07:51.220Z,9.95
2023-01-17T07:10:17.952Z,12.35
2023-01-17T07:12:44.563Z,6.45
2023-01-17T07:15:12.013Z,6.75
2023-01-17T07:17:38.979Z,10.02
2023-01-17T07:20:06.414Z,14.45
2023-01-17T07:22:33.061Z,9.77
2023-01-17T07:24:59.671Z,9.68
2023-01-17T07:27:27.717Z,9.02
2023-01-17T07:29:54.505Z,7.45
2023-01-17T07:32:21.259Z,10.43
2023-01-17T07:34:48.306Z,8.35
2023-01-17T07:37:15.414Z,11.02
2023-01-17T07:39:42.416Z,10.23
2023-01-17T07:42:09.332Z,10.23
2023-01-17T07:44:36.210Z,11.88
2023-01-17T07:47:04.271Z,7.85
2023-01-17T07:49:31.105Z,7.43
2023-01-17T07:51:57.719Z,9.75
2023-01-17T07:54:24.350Z,9.55
2023-01-17T07:56:50.951Z,10.55
2023-01-17T07:59:18.170Z,12.15
2023-01-17T08:01:44.906Z,10.77
2023-01-17T08:04:11.785Z,13.10
2023-01-17T08:06:42.104Z,12.27
2023-01-17T08:09:08.730Z,8.65
2023-01-17T08:11:35.312Z,8.40
2023-01-17T08:14:01.885Z,12.32
2023-01-17T08:16:29.624Z,11.88
2023-01-17T08:18:56.562Z,9.82
2023-01-17T08:21:23.654Z,7.85
2023-01-17T08:23:51.645Z,8.60
2023-01-17T08:26:22.872Z,9.80
2023-01-17T08:28:55.815Z,12.88
2023-01-17T08:31:23.254Z,11.82
2023-01-17T08:33:50.802Z,15.57
2023-01-17T08:36:17.776Z,9.13
2023-01-17T08:38:44.419Z,10.35
2023-01-17T08:41:12.935Z,8.15
2023-01-17T08:43:39.910Z,18.08
2023-01-17T08:46:06.591Z,8.38
2023-01-17T08:48:33.260Z,10.20
2023-01-17T08:51:01.676Z,16.88
2023-01-17T08:53:28.557Z,9.55
2023-01-17T08:55:59.877Z,11.43
2023-01-17T08:58:30.323Z,12.18
2023-01-17T09:01:05.857Z,14.65
2023-01-17T09:03:33.809Z,10.32
2023-01-17T09:06:07.768Z,11.80
2023-01-17T09:08:34.899Z,12.40
2023-01-17T09:11:10.335Z,11.23
2023-01-17T09:13:37.421Z,12.13
2023-01-17T09:16:04.488Z,15.18
2023-01-17T09:18:32.341Z,17.77
2023-01-17T09:21:01.897Z,16.40
2023-01-17T09:25:58.847Z,15.52
2023-01-17T09:28:26.939Z,21.23
2023-01-17T09:30:54.215Z,19.55
2023-01-17T09:33:21.615Z,18.52
2023-01-17T09:35:48.247Z,19.25
2023-01-17T09:38:14.929Z,20.48
2023-01-17T09:40:47.368Z,17.20
2023-01-17T09:43:40.855Z,16.40
2023-01-17T09:46:22.468Z,16.58
2023-01-17T09:49:01.908Z,15.43
2023-01-17T09:51:28.613Z,18.92
2023-01-17T09:53:55.660Z,20.27
2023-01-17T09:56:31.825Z,18.00
2023-01-17T09:59:01.506Z,18.73
2023-01-17T10:01:40.808Z,15.40
2023-01-17T10:04:38.997Z,13.80
2023-01-17T10:07:33.543Z,14.05
2023-01-17T10:10:18.873Z,14.43
2023-01-17T10:13:17.696Z,16.48
2023-01-17T10:15:53.175Z,12.18
2023-01-17T10:18:30.013Z,17.23
2023-01-17T10:21:14.637Z,18.58
2023-01-17T10:24:28.433Z,29.92
2023-01-17T10:26:58.699Z,20.40
2023-01-17T10:29:30.854Z,22.90
2023-01-17T10:32:01.574Z,19.85
2023-01-17T10:34:30.708Z,16.65
2023-01-17T10:37:11.890Z,22.45
2023-01-17T10:39:39.341Z,18.77
2023-01-17T10:42:44.200Z,22.10
2023-01-17T10:45:25.571Z,20.30
2023-01-17T10:48:02.045Z,22.85
2023-01-17T10:50:33.297Z,19.58
2023-01-17T10:53:10.869Z,19.23
2023-01-17T10:55:53.327Z,18.48
2023-01-17T10:58:20.349Z,20.30
2023-01-17T11:01:01.693Z,18.88
2023-01-17T11:03:29.580Z,18.83
2023-01-17T11:06:20.014Z,29.92
2023-01-17T11:08:58.016Z,23.88
2023-01-17T11:11:30.738Z,24.05
2023-01-17T11:14:04.646Z,25.15
2023-01-17T11:16:32.329Z,26.83
2023-01-17T11:19:36.109Z,22.10
2023-01-17T11:22:06.152Z,23.13
2023-01-17T11:24:37.748Z,25.77
2023-01-17T11:27:22.823Z,20.95
2023-01-17T11:30:04.337Z,20.45
2023-01-17T11:32:34.865Z,22.50
2023-01-17T11:35:07.983Z,22.50
2023-01-17T11:37:36.037Z,22.65
2023-01-17T11:40:28.452Z,26.52
2023-01-17T11:43:06.070Z,28.52
2023-01-17T11:45:34.323Z,25.67
2023-01-17T11:48:10.988Z,26.83
2023-01-17T11:50:58.501Z,32.58
2023-01-17T11:53:28.263Z,33.53
2023-01-17T11:56:11.175Z,28.33
2023-01-17T11:58:41.777Z,25.25
2023-01-17T12:01:37.131Z,30.05
2023-01-17T12:04:24.189Z,28.73
2023-01-17T12:07:10.906Z,25.73
2023-01-17T12:09:46.257Z,28.13
2023-01-17T12:12:56.361Z,26.17
2023-01-17T12:15:30.111Z,30.55
2023-01-17T12:18:16.540Z,26.17
2023-01-17T12:20:59.339Z,29.40
2023-01-17T12:23:49.114Z,32.97
2023-01-17T12:26:45.623Z,29.92
2023-01-17T12:29:43.516Z,31.45
2023-01-17T12:32:35.072Z,32.05
2023-01-17T12:35:04.699Z,25.27
2023-01-17T12:40:27.285Z,23.90
2023-01-17T12:43:21.867Z,21.63
2023-01-17T12:45:51.231Z,18.90
2023-01-17T12:48:19.738Z,24.52
2023-01-17T12:51:05.659Z,19.98
2023-01-17T12:53:40.422Z,19.77
2023-01-17T12:56:25.382Z,20.73
2023-01-17T12:58:56.580Z,25.17
2023-01-17T13:01:39.706Z,24.20
2023-01-17T13:04:16.836Z,24.00
2023-01-17T13:06:46.535Z,22.15
2023-01-17T13:09:19.108Z,29.67
2023-01-17T13:11:56.766Z,21.73
2023-01-17T13:14:23.699Z,22.00
2023-01-17T13:16:58.628Z,28.08
2023-01-17T13:19:25.202Z,28.83
2023-01-17T13:21:52.680Z,32.42
2023-01-17T13:24:27.918Z,29.10
2023-01-17T13:27:30.607Z,24.42
2023-01-17T13:30:17.886Z,26.95
2023-01-17T13:33:01.504Z,26.92
2023-01-17T13:35:49.205Z,26.48
2023-01-17T13:38:30.423Z,28.05
2023-01-17T13:41:07.655Z,34.65
2023-01-17T13:43:40.423Z,25.15
2023-01-17T13:46:07.498Z,23.13
2023-01-17T13:48:38.515Z,22.35
2023-01-17T13:51:10.329Z,30.33
2023-01-17T13:53:37.091Z,30.35
2023-01-17T13:56:19.026Z,29.45
2023-01-17T13:58:54.809Z,24.17
2023-01-17T14:01:24.698Z,25.10
2023-01-17T14:04:32.263Z,22.20
2023-01-17T14:07:26.357Z,21.90
2023-01-17T14:09:53.219Z,22.20
2023-01-17T14:12:21.172Z,28.23
2023-01-17T14:14:51.147Z,26.80
2023-01-17T14:17:22.717Z,25.50
2023-01-17T14:19:55.848Z,21.13
2023-01-17T14:22:28.511Z,21.45
2023-01-17T14:25:20.065Z,23.00
2023-01-17T14:27:53.632Z,20.80
2023-01-17T14:30:33.883Z,23.88
2023-01-17T14:33:04.767Z,24.48
2023-01-17T14:35:54.140Z,24.75
2023-01-17T14:38:26.927Z,21.67
2023-01-17T14:41:03.545Z,23.83
2023-01-17T14:43:33.093Z,20.65
2023-01-17T14:48:28.961Z,23.98
2023-01-17T14:50:59.956Z,20.02
2023-01-17T14:53:31.420Z,20.17
2023-01-17T14:56:12.049Z,20.63
2023-01-17T14:58:41.724Z,20.02
2023-01-17T15:01:21.750Z,22.70
2023-01-17T15:03:51.413Z,16.77
2023-01-17T15:08:45.071Z,19.23
2023-01-17T15:11:19.745Z,18.23
2023-01-17T15:13:49.839Z,22.20
2023-01-17T15:16:22.172Z,19.05
2023-01-17T15:18:49.531Z,25.85
2023-01-17T15:21:19.471Z,25.10
2023-01-17T15:23:53.095Z,24.50
2023-01-17T15:26:23.432Z,25.52
2023-01-17T15:28:50.808Z,25.17
2023-01-17T15:31:39.782Z,29.88
2023-01-17T15:34:08.923Z,27.45
2023-01-17T15:36:35.985Z,24.42
2023-01-17T15:39:07.468Z,25.63
2023-01-17T15:41:38.060Z,26.23
2023-01-17T15:44:05.889Z,27.15
2023-01-17T15:46:42.694Z,23.92
2023-01-17T15:49:19.481Z,28.05
2023-01-17T15:51:55.137Z,21.45
2023-01-17T15:54:28.837Z,29.05
2023-01-17T15:57:02.745Z,20.17
2023-01-17T15:59:54.818Z,23.83
2023-01-17T16:02:30.026Z,27.08
2023-01-17T16:04:57.611Z,27.33
2023-01-17T16:07:34.074Z,31.02
2023-01-17T16:10:35.613Z,32.60
2023-01-17T16:13:06.696Z,29.33
2023-01-17T16:15:35.224Z,38.20
2023-01-17T16:18:13.965Z,36.10
2023-01-17T16:20:46.516Z,38.03
2023-01-17T16:23:13.206Z,34.35
2023-01-17T16:25:39.829Z,36.30
2023-01-17T16:28:06.563Z,36.83
2023-01-17T16:30:33.905Z,45.65
2023-01-17T16:33:00.835Z,44.80
2023-01-17T16:35:30.482Z,42.97
2023-01-17T16:40:26.448Z,41.65
2023-01-17T16:42:55.806Z,41.88
2023-01-17T16:45:23.548Z,43.17
2023-01-17T16:47:51.672Z,48.15
2023-01-17T16:50:24.438Z,42.95
2023-01-17T16:52:52.847Z,47.75
2023-01-17T16:55:23.211Z,49.65
2023-01-17T16:57:51.294Z,43.75
2023-01-17T17:00:19.262Z,48.20
2023-01-17T17:02:50.271Z,47.03
2023-01-17T17:05:17.019Z,43.17
2023-01-17T17:07:45.474Z,45.03
2023-01-17T17:10:15.829Z,49.10
2023-01-17T17:12:42.967Z,44.35
2023-01-17T17:15:10.601Z,40.08
2023-01-17T17:17:39.269Z,45.50
2023-01-17T17:20:10.003Z,42.33
2023-01-17T17:22:36.742Z,41.83
2023-01-17T17:25:03.855Z,44.88
2023-01-17T17:27:30.416Z,43.05
2023-01-17T17:29:57.038Z,41.50
2023-01-17T17:32:23.959Z,49.00
2023-01-17T17:34:53.280Z,46.03
2023-01-17T17:37:21.390Z,45.80
2023-01-17T17:39:48.041Z,44.13
2023-01-17T17:42:15.528Z,43.55
2023-01-17T17:44:42.068Z,42.92
2023-01-17T17:47:09.265Z,42.00
2023-01-17T17:49:35.805Z,45.58
2023-01-17T17:52:08.930Z,40.75
2023-01-17T17:54:35.918Z,41.10
2023-01-17T17:57:02.429Z,43.80
2023-01-17T17:59:29.852Z,46.63
2023-01-17T18:01:57.058Z,49.42
2023-01-17T18:04:23.730Z,49.20
2023-01-17T18:06:50.315Z,45.85
2023-01-17T18:09:17.289Z,54.03
2023-01-17T18:11:44.728Z,47.53
2023-01-17T18:14:13.981Z,45.05
2023-01-17T18:16:43.569Z,46.05
2023-01-17T18:21:41.498Z,48.08
2023-01-17T18:24:11.298Z,42.88
2023-01-17T18:26:43.695Z,47.25
2023-01-17T18:29:14.775Z,47.55
2023-01-17T18:31:43.010Z,39.45
2023-01-17T18:34:12.912Z,40.97
2023-01-17T18:36:40.284Z,41.78
2023-01-17T18:39:12.860Z,41.35
2023-01-17T18:41:39.700Z,42.63
2023-01-17T18:44:06.549Z,46.30
2023-01-17T18:46:34.058Z,42.53
2023-01-17T18:49:00.907Z,43.38
2023-01-17T18:51:29.608Z,42.60
2023-01-17T18:53:56.288Z,38.50
2023-01-17T18:56:23.056Z,43.88
2023-01-17T18:58:50.667Z,35.85
2023-01-17T19:01:20.543Z,36.72
2023-01-17T19:03:49.263Z,40.30
2023-01-17T19:06:20.280Z,34.13
2023-01-17T19:08:49.201Z,30.58
2023-01-17T19:11:15.766Z,32.22
2023-01-17T19:13:42.365Z,31.48
2023-01-17T19:16:14.312Z,33.28
2023-01-17T19:18:41.380Z,33.70
2023-01-17T19:21:14.112Z,38.60
2023-01-17T19:23:41.360Z,35.45
2023-01-17T19:26:09.358Z,31.00
2023-01-17T19:28:41.521Z,37.00
2023-01-17T19:31:10.830Z,29.15
2023-01-17T19:33:39.660Z,36.15
2023-01-17T19:36:09.105Z,35.38
2023-01-17T19:38:37.032Z,34.45
2023-01-17T19:41:26.503Z,37.75
2023-01-17T19:46:22.215Z,35.28
2023-01-17T19:48:48.877Z,38.47
2023-01-17T19:51:16.728Z,37.40
2023-01-17T19:53:43.389Z,33.63
2023-01-17T19:56:11.951Z,39.65
2023-01-17T19:58:38.879Z,27.17
2023-01-17T20:01:09.733Z,30.75
2023-01-17T20:03:37.672Z,29.13
2023-01-17T20:06:09.393Z,38.58
2023-01-17T20:08:36.761Z,37.03
2023-01-17T20:11:09.995Z,37.60
2023-01-17T20:13:37.076Z,36.70
2023-01-17T20:16:09.031Z,36.33
2023-01-17T20:18:36.528Z,37.80
2023-01-17T20:21:20.745Z,37.65
2023-01-17T20:23:49.046Z,41.78
2023-01-17T20:26:18.392Z,43.47
2023-01-17T20:28:47.087Z,46.53
2023-01-17T20:31:16.356Z,48.87
2023-01-17T20:33:45.143Z,42.45
2023-01-17T20:36:14.936Z,47.10
2023-01-17T20:38:45.419Z,55.05
2023-01-17T20:41:13.503Z,54.65
2023-01-17T20:43:44.496Z,51.85
2023-01-17T20:46:12.002Z,48.35
2023-01-17T20:48:44.988Z,51.75
2023-01-17T20:51:12.541Z,52.20
2023-01-17T20:53:41.612Z,45.97
2023-01-17T20:56:08.784Z,50.35
2023-01-17T20:58:36.495Z,49.38
2023-01-17T21:01:03.257Z,45.67
2023-01-17T21:03:30.139Z,52.75
2023-01-17T21:06:05.893Z,55.40
2023-01-17T21:08:34.680Z,54.03
2023-01-17T21:11:01.678Z,49.00
2023-01-17T21:13:28.347Z,50.10
2023-01-17T21:15:55.192Z,43.33
2023-01-17T21:18:24.105Z,45.30
2023-01-17T21:20:51.072Z,36.20
2023-01-17T21:23:18.363Z,37.00
2023-01-17T21:25:55.812Z,39.88
2023-01-17T21:28:25.344Z,35.35
2023-01-17T21:30:55.683Z,36.17
2023-01-17T21:33:24.625Z,38.40
2023-01-17T21:35:51.850Z,34.08
2023-01-17T21:38:19.013Z,28.55
2023-01-17T21:40:45.911Z,37.65
2023-01-17T21:43:13.134Z,36.72
2023-01-17T21:45:41.065Z,32.40
2023-01-17T21:48:12.161Z,37.10
2023-01-17T21:50:39.149Z,34.63
2023-01-17T21:53:05.822Z,41.35
2023-01-17T21:55:51.010Z,31.55
2023-01-17T21:58:36.318Z,33.95
2023-01-17T22:01:16.100Z,30.65
2023-01-17T22:03:43.769Z,28.83
2023-01-17T22:06:10.331Z,35.20
2023-01-17T22:08:37.347Z,33.20
2023-01-17T22:11:10.921Z,29.42
2023-01-17T22:13:39.164Z,37.30
2023-01-17T22:16:08.650Z,31.58
2023-01-17T22:21:07.229Z,32.35
2023-01-17T22:23:34.940Z,30.70
2023-01-17T22:26:06.852Z,27.30
2023-01-17T22:28:33.824Z,27.90
2023-01-17T22:31:08.213Z,31.10
2023-01-17T22:33:36.218Z,31.85
2023-01-17T22:36:03.026Z,34.90
2023-01-17T22:38:29.989Z,36.30
2023-01-17T22:41:06.834Z,30.98
2023-01-17T22:43:38.262Z,32.00
2023-01-17T22:46:06.585Z,30.38
2023-01-17T22:48:33.912Z,27.92
2023-01-17T22:51:02.441Z,33.65
2023-01-17T22:53:29.912Z,33.50
2023-01-17T22:56:05.755Z,35.60
2023-01-17T22:58:34.000Z,39.72
2023-01-17T23:01:11.493Z,36.50
2023-01-17T23:03:40.803Z,38.05
2023-01-17T23:06:12.416Z,34.17
2023-01-17T23:08:41.505Z,32.92
2023-01-17T23:11:43.639Z,40.33
2023-01-17T23:14:21.138Z,42.83
2023-01-17T23:17:10.304Z,42.75
2023-01-17T23:19:39.192Z,41.38
2023-01-17T23:22:21.319Z,41.22
2023-01-17T23:24:49.232Z,34.40
2023-01-17T23:27:48.418Z,39.75
2023-01-17T23:30:28.655Z,39.47
2023-01-17T23:32:58.465Z,46.42
2023-01-17T23:35:27.651Z,36.90
2023-01-17T23:38:13.405Z,38.00
2023-01-17T23:40:41.029Z,40.42
2023-01-17T23:43:23.839Z,37.10
2023-01-17T23:45:54.737Z,41.70
2023-01-17T23:48:24.628Z,39.65
2023-01-17T23:50:51.826Z,44.03
2023-01-17T23:53:24.108Z,38.42
2023-01-17T23:55:53.689Z,36.38
